Lyerly, Georgia
Current Conditions -  °F | °C
As of 10:53 PM on Saturday 20 Dec 2014 (Local Time) from KRMG Reporting Station
Haze Haze  
Wind Chill:   Ceiling: Unl
Heat Index:   Visibility: 4mi
Dew Point:   Wind: 0mph
Humidity: 96%   Direction: NA
Pressure: 30.22"   Gusts: NA
Location:  34.4°N, 85.4°W
Report Text: KRMG 210353Z AUTO 00000KT 4SM BR SCT044 04/03 A3022 RMK AO2 SLP232 T00390033
Loading
Personal Weather Stations






























Interactive Weather Map New forecast layout! Learn more

10-Day Weather Forecast

Advertisements
Track Severe Weather on mobile